Thursday, January 17, 2019, 6:43 AM EST
Back to Local

KEWR, Newark International Airport

Location: Elizabeth, NJ, United States Lat: 40.683
Local Time: 6:43 AM EST (11:43 GMT) Lon: -74.167
Time Zone: US/Eastern Elev: 16 ft

Show me the last for .
Show Coded

Time T Td Feel RH Dir Speed Gust Alt SLP Vis Weather Sky Remarks
2019-01-17 05:51 25 5 16 41 350° 8 - 30.35 30.35 10 BKN210 None
2019-01-17 04:51 26 3 17 36 330° 9 - 30.33 30.33 10 BKN250 None
2019-01-17 03:51 26 3 16 36 330° 12 - 30.32 30.32 10 BKN250 None
2019-01-17 02:51 28 6 18 38 340° 12 - 30.31 30.31 10 BKN250 None
2019-01-17 01:51 29 10 14 44 320° 17 29 30.29 30.29 10 SCT210 BKN250 None
2019-01-17 00:51 31 14 21 48 340° 13 - 30.26 30.26 10 BKN220 6-hr Min Temp (1am): 30.9°F
6-hr Max Temp (1am): 39.0°F
2019-01-16 23:51 34 13 24 41 310° 16 - 30.24 30.23 10 FEW050 BKN230 24-hr Min Temp (12am): 23.0°F
24-hr Max Temp (12am): 39.0°F
2019-01-16 22:51 36 18 27 47 310° 14 - 30.22 30.21 10 FEW047 FEW055 BKN230 None
2019-01-16 21:51 37 21 31 51 310° 8 - 30.19 30.19 10 BKN045 None
2019-01-16 20:51 37 21 29 51 260° 12 - 30.15 30.15 10 BKN055 None
2019-01-16 19:51 37 21 29 51 250° 12 - 30.13 30.13 10 SCT055 None
2019-01-16 18:51 38 20 30 47 250° 12 - 30.12 30.11 10 BKN055 6-hr Min Temp (7pm): 37.0°F
6-hr Max Temp (7pm): 39.0°F
2019-01-16 17:51 38 21 31 50 260° 9 - 30.10 30.10 10 BKN055 BKN250 None
2019-01-16 16:51 39 21 29 48 260° 12 21 30.08 30.08 10 BKN050 BKN250 None
2019-01-16 15:51 39 22 31 49 280° 13 - 30.06 30.06 10 BKN045 None
2019-01-16 14:51 38 23 31 54 250° 10 - 30.05 30.04 10 BKN040 None
2019-01-16 13:51 37 24 28 59 270° 14 - 30.05 30.04 10 OVC039 None
2019-01-16 12:51 36 23 27 58 270° 15 - 30.05 30.05 10 FEW032 BKN035 OVC045 6-hr Min Temp (1pm): 27.0°F
6-hr Max Temp (1pm): 37.0°F
2019-01-16 11:51 36 23 28 58 260° 13 - 30.07 30.07 10 FEW025 BKN035 OVC040 None
2019-01-16 10:51 34 22 24 60 260° 15 - 30.10 30.09 10 FEW025 OVC034 None
2019-01-16 10:30 34 23 23 63 260° 10 17 30.10 - 10 FEW025 OVC032 None
2019-01-16 09:51 32 23 24 68 230° 10 - 30.09 30.09 9 OVC028 None
2019-01-16 08:51 30 22 21 71 220° 10 - 30.07 30.06 9 OVC027 None
2019-01-16 07:51 28 21 19 74 220° 9 - 30.06 30.06 9 OVC026 None
2019-01-16 07:07 27 20 17 74 230° 10 - 30.06 - 10 OVC029 None
2019-01-16 06:51 27 20 18 74 220° 9 - 30.06 30.06 10 BKN030 BKN250 6-hr Min Temp (7am): 23.0°F
6-hr Max Temp (7am): 27.0°F

Support USWX by starting your Amazon purchase here.